< < Back
Terminal Aerodrome Forecast


Current Version              Previous Versions:   1  2  3  4  5  6  7  8  9  

Terminal Aerodrome Forecast

970
FTUS42 KFFC 281731
TAFCSG
TAF
KCSG 281731Z 2818/2918 24005KT 4SM BR OVC007
     FM290200 34004KT 4SM -RA BR OVC006
     FM290800 03004KT 2SM -RA BR OVC005
     FM291300 03003KT 4SM BR OVC006=

Latest METAR

591
SAUS70 KWBC 290100
MTRCSG
METAR KCSG 290051Z AUTO 00000KT 10SM FEW090 16/16 A3004 RMK AO2 SLP171
T01610156


USA.gov is the U.S. government's official web portal to all federal, state and local government web resources and services.